Time;durP1;ratioP1;P1;durP2;ratioP2;P2;SDS_P1;SDS_P2;PMS_P1;PMS_P2;Temp;Humidity;BMP_temperature;BMP_pressure;BME280_temperature;BME280_humidity;BME280_pressure;Samples;Min_cycle;Max_cycle;Signal;HPM_P1;HPM_P2
2023/11/26 00:00:40;;;;;;;8.82;3.72;;;5.00;92.20;;;;;;5132278;27;20023;-32
2023/11/26 00:03:06;;;;;;;8.70;4.35;;;5.00;92.20;;;;;;5132354;27;20106;-33
2023/11/26 00:05:32;;;;;;;11.27;4.60;;;5.00;92.30;;;;;;5132485;27;20114;-31
2023/11/26 00:07:57;;;;;;;10.10;3.83;;;5.00;92.20;;;;;;5130753;28;20063;-33
2023/11/26 00:10:23;;;;;;;9.23;3.70;;;5.00;92.30;;;;;;5132293;27;20467;-32
2023/11/26 00:12:48;;;;;;;10.32;4.40;;;5.00;92.30;;;;;;5132011;27;20427;-33
2023/11/26 00:15:14;;;;;;;11.77;4.00;;;5.00;92.30;;;;;;5132112;27;20043;-33
2023/11/26 00:17:39;;;;;;;12.25;3.70;;;5.00;92.30;;;;;;5131888;27;20023;-37
2023/11/26 00:20:06;;;;;;;8.95;3.22;;;4.90;92.20;;;;;;5132128;27;20033;-33
2023/11/26 00:22:32;;;;;;;10.40;3.58;;;4.90;92.20;;;;;;5132249;27;20398;-33
2023/11/26 00:24:58;;;;;;;9.82;4.18;;;4.90;92.30;;;;;;5132458;27;20098;-36
2023/11/26 00:27:25;;;;;;;10.85;4.43;;;4.90;92.20;;;;;;5131987;27;20134;-33
2023/11/26 00:29:50;;;;;;;9.35;4.65;;;4.90;92.30;;;;;;5131837;27;20110;-33
2023/11/26 00:32:16;;;;;;;8.32;4.22;;;4.90;92.30;;;;;;5131729;27;20106;-33
2023/11/26 00:34:42;;;;;;;11.20;4.00;;;4.90;92.30;;;;;;5132156;27;20027;-33
2023/11/26 00:37:08;;;;;;;8.15;4.20;;;4.90;92.30;;;;;;5132147;27;20020;-32
2023/11/26 00:39:33;;;;;;;9.85;4.05;;;4.80;92.30;;;;;;5131861;27;20088;-32
2023/11/26 00:41:59;;;;;;;7.95;3.85;;;4.80;92.30;;;;;;5132012;27;20034;-32
2023/11/26 00:44:25;;;;;;;15.80;3.80;;;4.80;92.30;;;;;;5132144;27;20484;-32
2023/11/26 00:46:54;;;;;;;8.48;3.70;;;4.80;92.30;;;;;;5133933;27;20035;-32
2023/11/26 00:49:20;;;;;;;5.70;3.40;;;4.80;92.30;;;;;;5135977;27;20045;-33
2023/11/26 00:51:45;;;;;;;7.72;3.22;;;4.70;92.30;;;;;;5135637;27;20040;-32
2023/11/26 00:54:11;;;;;;;13.18;3.40;;;4.70;92.30;;;;;;5135648;27;20118;-32
2023/11/26 00:56:36;;;;;;;11.70;3.65;;;4.70;92.60;;;;;;5135470;27;20026;-33
2023/11/26 00:59:02;;;;;;;7.30;2.97;;;4.70;92.30;;;;;;5135606;27;20049;-32
2023/11/26 01:01:28;;;;;;;9.02;3.50;;;4.60;92.30;;;;;;5135651;27;20079;-30
2023/11/26 01:03:54;;;;;;;7.40;3.13;;;4.60;92.40;;;;;;5135488;27;20412;-33
2023/11/26 01:06:20;;;;;;;9.95;3.70;;;4.60;92.40;;;;;;5135397;27;20076;-33
2023/11/26 01:08:45;;;;;;;6.75;4.03;;;4.60;92.40;;;;;;5135240;27;20079;-32
2023/11/26 01:11:12;;;;;;;11.20;4.30;;;4.60;92.40;;;;;;5135322;27;20062;-33
2023/11/26 01:13:38;;;;;;;7.45;4.10;;;4.60;92.40;;;;;;5135438;27;20441;-33
2023/11/26 01:16:05;;;;;;;8.27;3.92;;;4.60;92.40;;;;;;5135142;27;20023;-33
2023/11/26 01:18:30;;;;;;;6.72;3.58;;;4.50;92.40;;;;;;5135025;27;20058;-33
2023/11/26 01:20:57;;;;;;;16.55;4.18;;;4.60;92.40;;;;;;5135568;27;20027;-33
2023/11/26 01:23:22;;;;;;;9.48;3.90;;;4.60;92.40;;;;;;5135309;27;20019;-33
2023/11/26 01:25:48;;;;;;;11.40;4.60;;;4.50;92.40;;;;;;5133716;27;20083;-33
2023/11/26 01:28:14;;;;;;;9.40;4.53;;;4.50;92.40;;;;;;5134884;27;20015;-34
2023/11/26 01:30:39;;;;;;;10.20;4.75;;;4.50;92.40;;;;;;5134922;27;20035;-33
2023/11/26 01:33:06;;;;;;;11.45;4.40;;;4.50;92.40;;;;;;5135054;27;20018;-33
2023/11/26 01:35:31;;;;;;;9.60;4.38;;;4.50;92.40;;;;;;5135237;27;20487;-33
2023/11/26 01:37:57;;;;;;;11.32;4.80;;;4.50;92.40;;;;;;5135170;27;20012;-33
2023/11/26 01:40:22;;;;;;;10.18;5.03;;;4.50;92.40;;;;;;5134945;27;20086;-32
2023/11/26 01:42:48;;;;;;;11.95;5.22;;;4.50;92.40;;;;;;5134720;27;20068;-33
2023/11/26 01:45:13;;;;;;;14.15;5.00;;;4.50;92.40;;;;;;5134926;27;20381;-32
2023/11/26 01:47:40;;;;;;;11.85;4.55;;;4.60;92.40;;;;;;5133238;27;20019;-33
2023/11/26 01:50:08;;;;;;;12.15;4.53;;;4.50;92.40;;;;;;5134868;27;20030;-33
2023/11/26 01:52:34;;;;;;;8.82;4.50;;;4.50;92.40;;;;;;5134674;27;20022;-32
2023/11/26 01:55:00;;;;;;;9.80;4.00;;;4.50;92.40;;;;;;5134912;27;20466;-33
2023/11/26 01:57:26;;;;;;;12.63;4.78;;;4.50;92.40;;;;;;5134500;27;20504;-32
2023/11/26 01:59:52;;;;;;;12.80;4.75;;;4.50;92.40;;;;;;5134290;27;20050;-32
2023/11/26 02:02:18;;;;;;;10.55;4.25;;;4.50;92.40;;;;;;5133745;27;20027;-32
2023/11/26 02:04:43;;;;;;;9.35;4.05;;;4.50;92.40;;;;;;5134011;27;20433;-32
2023/11/26 02:07:09;;;;;;;12.13;3.83;;;4.40;92.40;;;;;;5134538;27;20031;-33
2023/11/26 02:09:35;;;;;;;10.98;4.63;;;4.40;92.50;;;;;;5134231;27;20015;-33
2023/11/26 02:12:00;;;;;;;11.57;4.45;;;4.40;92.40;;;;;;5134305;27;20022;-33
2023/11/26 02:14:26;;;;;;;10.18;4.63;;;4.40;92.40;;;;;;5134134;27;20020;-32
2023/11/26 02:16:52;;;;;;;8.88;4.75;;;4.40;92.40;;;;;;5134177;27;20382;-33
2023/11/26 02:19:26;;;;;;;10.23;5.30;;;4.30;92.50;;;;;;5133974;27;20030;-33
2023/11/26 02:21:52;;;;;;;12.10;5.05;;;4.30;92.50;;;;;;5134034;27;20027;-32
2023/11/26 02:24:26;;;;;;;11.32;4.80;;;4.30;92.40;;;;;;5133771;27;20071;-33
2023/11/26 02:26:51;;;;;;;14.18;5.80;;;4.20;92.50;;;;;;5133768;27;20027;-32
2023/11/26 02:29:17;;;;;;;10.57;4.47;;;4.20;92.50;;;;;;5133905;27;20160;-33
2023/11/26 02:31:43;;;;;;;10.18;5.18;;;4.20;92.50;;;;;;5133675;27;20494;-33
2023/11/26 02:34:08;;;;;;;11.70;4.80;;;4.20;92.60;;;;;;5134001;27;20044;-33
2023/11/26 02:36:34;;;;;;;10.90;4.80;;;4.20;92.60;;;;;;5133654;27;20031;-33
2023/11/26 02:38:59;;;;;;;10.13;4.90;;;4.10;92.60;;;;;;5133467;27;20102;-33
2023/11/26 02:41:25;;;;;;;11.43;4.68;;;4.10;92.60;;;;;;5133685;27;20186;-33
2023/11/26 02:43:51;;;;;;;11.30;5.72;;;4.10;92.70;;;;;;5133324;27;20031;-31
2023/11/26 02:46:16;;;;;;;8.55;4.72;;;4.10;92.70;;;;;;5133453;27;20114;-33
2023/11/26 02:48:42;;;;;;;14.85;5.10;;;4.10;92.70;;;;;;5133358;27;20122;-32
2023/11/26 02:51:07;;;;;;;9.32;4.63;;;4.10;92.70;;;;;;5133636;27;20026;-33
2023/11/26 02:53:33;;;;;;;12.57;5.10;;;4.10;92.70;;;;;;5132975;27;20453;-33
2023/11/26 02:55:58;;;;;;;11.63;4.53;;;4.10;92.70;;;;;;5133869;27;20016;-33
2023/11/26 02:58:24;;;;;;;8.77;4.22;;;4.10;92.70;;;;;;5133360;27;20124;-32
2023/11/26 03:00:51;;;;;;;12.93;4.93;;;4.00;92.70;;;;;;5133532;27;20095;-33
2023/11/26 03:03:19;;;;;;;10.00;5.15;;;4.10;92.70;;;;;;5132888;27;20042;-33
2023/11/26 03:05:50;;;;;;;12.75;4.53;;;4.00;92.70;;;;;;5132944;27;20110;-33
2023/11/26 03:08:28;;;;;;;10.38;4.43;;;4.00;92.70;;;;;;5133597;27;20051;-34
2023/11/26 03:13:38;;;;;;;11.60;4.35;;;4.00;92.70;;;;;;5132902;27;20096;-33
2023/11/26 03:16:07;;;;;;;9.93;4.43;;;4.00;92.70;;;;;;5132791;27;20031;-33
2023/11/26 03:18:33;;;;;;;10.85;4.88;;;4.00;92.70;;;;;;5132652;27;20353;-33
2023/11/26 03:20:59;;;;;;;9.15;4.85;;;4.00;92.80;;;;;;5133350;27;20066;-33
2023/11/26 03:23:24;;;;;;;10.02;4.32;;;4.00;92.70;;;;;;5132908;27;20023;-33
2023/11/26 03:25:53;;;;;;;10.27;4.70;;;4.00;92.80;;;;;;5132975;27;20476;-33
2023/11/26 03:28:22;;;;;;;13.45;5.47;;;4.00;92.80;;;;;;5132684;27;20023;-33
2023/11/26 03:30:49;;;;;;;9.90;4.65;;;4.00;92.70;;;;;;5132597;27;20058;-34
2023/11/26 03:33:16;;;;;;;11.88;5.32;;;4.00;92.70;;;;;;5132986;27;20535;-34
2023/11/26 03:35:43;;;;;;;11.65;4.70;;;4.00;92.70;;;;;;5132979;27;20430;-33
2023/11/26 03:38:08;;;;;;;11.02;4.65;;;4.00;92.70;;;;;;5132811;27;20026;-34
2023/11/26 03:40:34;;;;;;;12.60;4.82;;;4.00;92.70;;;;;;5132509;27;20027;-33
2023/11/26 03:43:00;;;;;;;10.25;4.88;;;4.10;92.70;;;;;;5132619;27;20035;-32
2023/11/26 03:45:26;;;;;;;9.30;4.80;;;4.00;92.70;;;;;;5132432;27;20092;-33
2023/11/26 03:47:51;;;;;;;9.50;4.80;;;4.00;92.70;;;;;;5132224;27;20099;-33
2023/11/26 03:50:19;;;;;;;9.98;4.47;;;4.00;92.70;;;;;;5132481;27;20072;-33
2023/11/26 03:52:45;;;;;;;10.32;5.20;;;4.10;92.70;;;;;;5132542;27;20486;-33
2023/11/26 03:55:10;;;;;;;8.65;4.47;;;4.10;92.70;;;;;;5132722;27;20030;-32
2023/11/26 03:57:37;;;;;;;9.73;4.20;;;4.10;92.70;;;;;;5132094;27;20030;-33
2023/11/26 04:00:08;;;;;;;9.63;4.13;;;4.10;92.70;;;;;;5132694;27;20423;-33
2023/11/26 04:02:34;;;;;;;9.57;4.28;;;4.10;92.80;;;;;;5132115;27;20034;-32
2023/11/26 04:05:01;;;;;;;9.63;4.50;;;4.10;92.70;;;;;;5132566;27;20545;-33
2023/11/26 04:07:26;;;;;;;10.10;4.63;;;4.10;92.70;;;;;;5132170;27;20055;-32
2023/11/26 04:09:52;;;;;;;10.20;3.88;;;4.10;92.70;;;;;;5132606;27;20736;-33
2023/11/26 04:12:18;;;;;;;10.85;4.03;;;4.00;92.70;;;;;;5132250;27;20494;-33
2023/11/26 04:14:55;;;;;;;10.35;4.30;;;4.00;92.70;;;;;;5132210;27;20099;-33
2023/11/26 04:17:22;;;;;;;10.45;4.20;;;4.00;92.80;;;;;;5132261;27;20387;-33
2023/11/26 04:19:49;;;;;;;9.93;4.30;;;4.00;92.80;;;;;;5132311;27;20024;-33
2023/11/26 04:22:17;;;;;;;11.80;4.40;;;4.00;92.80;;;;;;5135194;27;20057;-33
2023/11/26 04:24:43;;;;;;;7.75;3.95;;;4.00;92.80;;;;;;5136028;27;20030;-32
2023/11/26 04:27:09;;;;;;;8.70;4.20;;;4.00;92.80;;;;;;5136211;27;20379;-33
2023/11/26 04:29:35;;;;;;;10.88;4.68;;;4.00;92.80;;;;;;5134601;27;20030;-32
2023/11/26 04:32:01;;;;;;;10.18;4.15;;;4.00;92.80;;;;;;5135905;27;20547;-32
2023/11/26 04:34:26;;;;;;;11.02;4.32;;;4.00;92.80;;;;;;5135944;27;20027;-32
2023/11/26 04:36:52;;;;;;;8.35;4.00;;;4.00;92.80;;;;;;5135983;27;20445;-32
2023/11/26 04:39:17;;;;;;;9.80;4.10;;;4.00;92.80;;;;;;5135629;27;20084;-35
2023/11/26 04:41:43;;;;;;;7.18;3.80;;;4.00;92.80;;;;;;5135997;27;20537;-32
2023/11/26 04:44:08;;;;;;;6.47;3.53;;;4.00;92.80;;;;;;5135805;27;20027;-32
2023/11/26 04:46:34;;;;;;;7.97;4.18;;;4.00;92.70;;;;;;5135532;27;20069;-32
2023/11/26 04:48:59;;;;;;;8.48;4.25;;;4.00;92.80;;;;;;5135409;27;20023;-32
2023/11/26 04:51:25;;;;;;;9.73;3.90;;;4.00;92.80;;;;;;5135811;27;20052;-33
2023/11/26 04:53:50;;;;;;;10.32;4.03;;;4.00;93.10;;;;;;5135529;27;20114;-33
2023/11/26 04:56:18;;;;;;;6.50;3.80;;;4.00;92.80;;;;;;5135613;27;20424;-33
2023/11/26 04:58:44;;;;;;;11.25;3.92;;;4.10;92.80;;;;;;5134233;27;20110;-32
2023/11/26 05:01:15;;;;;;;11.25;4.40;;;4.10;92.80;;;;;;5135559;27;20458;-32
2023/11/26 05:03:41;;;;;;;10.68;4.20;;;4.10;92.80;;;;;;5135340;27;20053;-32
2023/11/26 05:06:07;;;;;;;7.25;3.53;;;4.00;92.70;;;;;;5135210;27;20069;-34
2023/11/26 05:08:33;;;;;;;10.60;4.13;;;4.10;92.70;;;;;;5135088;27;20031;-33
2023/11/26 05:11:01;;;;;;;8.23;3.75;;;4.10;92.80;;;;;;5135467;27;20098;-33
2023/11/26 05:13:27;;;;;;;12.63;4.25;;;4.10;92.70;;;;;;5134996;27;20064;-33
2023/11/26 05:15:52;;;;;;;9.30;4.07;;;4.20;92.70;;;;;;5135279;27;20019;-33
2023/11/26 05:18:18;;;;;;;8.13;3.78;;;4.10;92.70;;;;;;5135140;27;20023;-32
2023/11/26 05:20:45;;;;;;;9.07;3.80;;;4.10;92.70;;;;;;5135033;27;20428;-32
2023/11/26 05:23:10;;;;;;;9.77;3.65;;;4.10;93.00;;;;;;5135365;27;20031;-33
2023/11/26 05:25:36;;;;;;;7.53;3.53;;;4.20;92.70;;;;;;5135026;27;20027;-33
2023/11/26 05:28:01;;;;;;;10.13;3.70;;;4.10;92.70;;;;;;5135433;27;20030;-33
2023/11/26 05:30:27;;;;;;;10.35;3.65;;;4.20;92.70;;;;;;5135326;27;20144;-34
2023/11/26 05:32:52;;;;;;;10.20;3.30;;;4.20;92.70;;;;;;5134084;27;20031;-33
2023/11/26 05:35:19;;;;;;;7.85;3.80;;;4.20;92.70;;;;;;5134990;27;20087;-33
2023/11/26 05:37:44;;;;;;;8.32;3.88;;;4.20;92.70;;;;;;5135209;27;20023;-32
2023/11/26 05:40:13;;;;;;;9.57;3.70;;;4.20;92.70;;;;;;5135092;27;20499;-32
2023/11/26 05:42:39;;;;;;;8.20;3.63;;;4.20;92.60;;;;;;5134982;27;20114;-34
2023/11/26 05:45:05;;;;;;;10.23;4.07;;;4.30;92.70;;;;;;5134453;27;20106;-33
2023/11/26 05:47:34;;;;;;;9.52;3.92;;;4.30;92.70;;;;;;5134751;27;20471;-33
2023/11/26 05:50:00;;;;;;;9.10;3.75;;;4.30;92.70;;;;;;5134528;27;20506;-33
2023/11/26 05:52:26;;;;;;;7.82;3.50;;;4.40;92.70;;;;;;5134686;27;20102;-32
2023/11/26 05:54:52;;;;;;;5.80;3.35;;;4.40;92.60;;;;;;5134070;27;20031;-33
2023/11/26 05:57:19;;;;;;;6.72;3.42;;;4.50;92.60;;;;;;5134518;27;20067;-33
2023/11/26 05:59:44;;;;;;;7.82;3.10;;;4.50;92.60;;;;;;5134137;27;20051;-33
2023/11/26 06:02:10;;;;;;;7.15;3.45;;;4.50;92.60;;;;;;5134385;27;20062;-33
2023/11/26 06:04:36;;;;;;;5.75;3.35;;;4.60;92.60;;;;;;5133741;27;20505;-33
2023/11/26 06:07:03;;;;;;;4.57;2.75;;;4.60;92.50;;;;;;5134479;27;20079;-33
2023/11/26 06:09:29;;;;;;;8.20;3.20;;;4.60;92.50;;;;;;5134094;27;20460;-34
2023/11/26 06:11:57;;;;;;;7.10;3.20;;;4.60;92.50;;;;;;5134277;27;20147;-33
2023/11/26 06:14:22;;;;;;;8.15;3.17;;;4.70;92.50;;;;;;5133778;27;20058;-32
2023/11/26 06:16:48;;;;;;;5.93;2.92;;;4.70;92.50;;;;;;5134253;27;20029;-34
2023/11/26 06:19:14;;;;;;;5.25;2.95;;;4.70;92.50;;;;;;5133754;27;20011;-32
2023/11/26 06:21:39;;;;;;;6.60;3.15;;;4.70;92.50;;;;;;5133996;27;20019;-33
2023/11/26 06:24:05;;;;;;;8.55;3.25;;;4.70;92.50;;;;;;5134007;27;20560;-33
2023/11/26 06:26:31;;;;;;;6.55;2.90;;;4.70;92.50;;;;;;5133600;27;20031;-33
2023/11/26 06:28:58;;;;;;;6.85;3.20;;;4.70;92.50;;;;;;5133621;27;20481;-34
2023/11/26 06:31:24;;;;;;;7.75;3.08;;;4.70;92.50;;;;;;5133715;27;20050;-32
2023/11/26 06:33:51;;;;;;;6.85;3.28;;;4.70;92.50;;;;;;5133789;27;20471;-33
2023/11/26 06:36:18;;;;;;;6.88;3.22;;;4.70;92.50;;;;;;5133828;27;20359;-33
2023/11/26 06:38:43;;;;;;;5.10;3.03;;;4.70;92.50;;;;;;5133423;27;20061;-32
2023/11/26 06:41:09;;;;;;;7.90;2.92;;;4.70;92.50;;;;;;5133533;27;20015;-33
2023/11/26 06:43:34;;;;;;;6.40;2.67;;;4.70;92.50;;;;;;5133432;27;20024;-31
2023/11/26 06:46:01;;;;;;;7.32;3.20;;;4.80;92.50;;;;;;5133508;27;20027;-33
2023/11/26 06:48:26;;;;;;;7.55;3.13;;;4.80;92.50;;;;;;5133170;27;20509;-33
2023/11/26 06:50:52;;;;;;;7.50;3.13;;;4.80;92.50;;;;;;5133363;27;20397;-32
2023/11/26 06:53:17;;;;;;;7.97;2.85;;;4.80;92.50;;;;;;5133200;27;20031;-33
2023/11/26 06:55:43;;;;;;;9.55;3.33;;;4.80;92.50;;;;;;5133063;27;20487;-33
2023/11/26 06:58:09;;;;;;;7.00;3.45;;;4.80;92.50;;;;;;5133643;27;20023;-31
2023/11/26 07:00:34;;;;;;;4.57;2.60;;;4.90;92.50;;;;;;5133085;27;20022;-33
2023/11/26 07:03:00;;;;;;;8.80;3.38;;;4.80;92.50;;;;;;5133456;27;20027;-33
2023/11/26 07:05:25;;;;;;;6.68;3.08;;;4.80;92.40;;;;;;5132898;27;20027;-33
2023/11/26 07:07:51;;;;;;;5.55;3.13;;;4.90;92.50;;;;;;5133453;27;20433;-33
2023/11/26 07:10:17;;;;;;;6.03;3.10;;;4.80;92.50;;;;;;5133416;27;20490;-33
2023/11/26 07:12:43;;;;;;;7.93;3.03;;;4.90;92.50;;;;;;5132984;27;20386;-33
2023/11/26 07:15:10;;;;;;;5.88;2.80;;;4.90;92.50;;;;;;5132996;27;20106;-32
2023/11/26 07:17:35;;;;;;;6.30;3.38;;;4.90;92.50;;;;;;5132992;27;20015;-32
2023/11/26 07:20:01;;;;;;;7.88;3.35;;;4.90;92.50;;;;;;5132914;27;20072;-32
2023/11/26 07:22:26;;;;;;;6.18;3.20;;;4.90;92.50;;;;;;5133039;27;20475;-33
2023/11/26 07:24:53;;;;;;;6.47;3.08;;;4.90;92.50;;;;;;5132768;27;20448;-33
2023/11/26 07:27:18;;;;;;;6.15;2.60;;;5.00;92.50;;;;;;5132625;27;20023;-33
2023/11/26 07:29:44;;;;;;;6.40;3.03;;;5.00;92.50;;;;;;5132461;27;20080;-33
2023/11/26 07:32:09;;;;;;;4.32;2.88;;;5.00;92.50;;;;;;5132919;27;20067;-33
2023/11/26 07:34:35;;;;;;;5.68;2.88;;;5.00;92.50;;;;;;5132773;27;20061;-30
2023/11/26 07:37:00;;;;;;;7.03;2.70;;;5.00;92.50;;;;;;5132752;27;20029;-33
2023/11/26 07:39:26;;;;;;;7.38;2.95;;;5.10;92.50;;;;;;5132801;27;20061;-32
2023/11/26 07:41:52;;;;;;;4.45;2.63;;;5.10;92.50;;;;;;5132730;27;20031;-33
2023/11/26 07:44:18;;;;;;;5.32;3.22;;;5.10;92.50;;;;;;5132669;27;20019;-33
2023/11/26 07:46:43;;;;;;;6.70;2.80;;;5.10;92.50;;;;;;5132289;27;20069;-32
2023/11/26 07:49:09;;;;;;;4.63;2.45;;;5.20;92.50;;;;;;5132088;27;20047;-32
2023/11/26 07:51:37;;;;;;;5.30;2.75;;;5.20;92.50;;;;;;5132271;27;20034;-30
2023/11/26 07:54:03;;;;;;;6.97;2.70;;;5.20;92.50;;;;;;5132037;27;20050;-32
2023/11/26 07:56:29;;;;;;;6.85;3.28;;;5.20;92.50;;;;;;5131727;27;20019;-33
2023/11/26 07:58:55;;;;;;;11.45;4.57;;;5.30;92.50;;;;;;5132173;27;20033;-33
2023/11/26 08:01:20;;;;;;;9.70;4.82;;;5.30;92.50;;;;;;5132401;27;20245;-33
2023/11/26 08:03:46;;;;;;;12.13;4.65;;;5.30;92.50;;;;;;5132239;27;20031;-33
2023/11/26 08:06:13;;;;;;;9.48;4.40;;;5.40;92.50;;;;;;5132687;27;20442;-32
2023/11/26 08:08:40;;;;;;;7.78;3.13;;;5.50;92.50;;;;;;5132033;27;20024;-32
2023/11/26 08:11:07;;;;;;;7.05;3.90;;;5.50;92.40;;;;;;5132572;27;20031;-34
2023/11/26 08:13:37;;;;;;;8.15;3.42;;;5.50;92.40;;;;;;5132094;27;20023;-30
2023/11/26 08:16:07;;;;;;;7.97;3.13;;;5.50;92.30;;;;;;5132425;27;20022;-33
2023/11/26 08:18:35;;;;;;;5.88;2.88;;;5.50;92.30;;;;;;5132323;27;20071;-32
2023/11/26 08:21:04;;;;;;;5.55;2.80;;;5.60;92.40;;;;;;5132415;27;20080;-33
2023/11/26 08:23:30;;;;;;;6.80;2.72;;;5.60;92.40;;;;;;5132478;27;20047;-33
2023/11/26 08:25:58;;;;;;;7.97;2.95;;;5.60;92.40;;;;;;5132016;27;20098;-31
2023/11/26 08:28:28;;;;;;;8.13;3.13;;;5.70;92.40;;;;;;5132098;27;20023;-32
2023/11/26 08:30:55;;;;;;;4.32;2.30;;;5.70;92.30;;;;;;5130597;28;20046;-32
2023/11/26 08:33:22;;;;;;;5.90;2.60;;;5.70;92.60;;;;;;5132323;27;20039;-34
2023/11/26 08:35:53;;;;;;;5.47;2.75;;;5.80;92.30;;;;;;5132001;27;20027;-33
2023/11/26 08:38:19;;;;;;;4.95;2.58;;;5.80;92.30;;;;;;5132011;27;20102;-33
2023/11/26 08:40:45;;;;;;;5.18;2.70;;;5.80;92.30;;;;;;5132090;27;20383;-33
2023/11/26 08:43:13;;;;;;;6.40;2.50;;;5.80;92.30;;;;;;5132166;27;20034;-33
2023/11/26 08:45:40;;;;;;;7.25;3.03;;;5.90;92.30;;;;;;5130171;28;20023;-32
2023/11/26 08:48:06;;;;;;;6.57;2.92;;;6.00;92.40;;;;;;5131741;27;20481;-31
2023/11/26 08:50:32;;;;;;;7.13;2.83;;;6.00;92.30;;;;;;5131940;27;20087;-33
2023/11/26 08:52:59;;;;;;;9.25;2.90;;;6.10;92.30;;;;;;5131965;27;20027;-33
2023/11/26 08:55:25;;;;;;;6.68;2.60;;;6.10;92.30;;;;;;5131153;27;20019;-33
2023/11/26 08:57:51;;;;;;;6.90;3.00;;;6.20;92.20;;;;;;5131863;27;20045;-33
2023/11/26 09:00:17;;;;;;;18.23;4.40;;;6.20;92.20;;;;;;5131595;27;20422;-33
2023/11/26 09:02:43;;;;;;;5.50;3.13;;;6.20;92.10;;;;;;5130205;28;20027;-32
2023/11/26 09:05:09;;;;;;;5.75;2.83;;;6.20;92.20;;;;;;5131368;27;20023;-34
2023/11/26 09:07:36;;;;;;;4.75;2.83;;;6.30;92.20;;;;;;5131982;27;20059;-33
2023/11/26 09:10:03;;;;;;;7.70;3.42;;;6.30;92.20;;;;;;5135406;27;20027;-33
2023/11/26 09:12:28;;;;;;;4.72;2.97;;;6.30;92.20;;;;;;5135527;27;20441;-33
2023/11/26 09:14:54;;;;;;;5.85;3.08;;;6.30;92.20;;;;;;5134947;27;20026;-32
2023/11/26 09:17:21;;;;;;;3.42;2.22;;;6.40;92.20;;;;;;5135439;27;20022;-33
2023/11/26 09:19:47;;;;;;;7.75;2.47;;;6.40;92.20;;;;;;5135085;27;20019;-32
2023/11/26 09:22:13;;;;;;;6.40;2.70;;;6.40;92.20;;;;;;5135289;27;20470;-32
2023/11/26 09:24:39;;;;;;;5.63;2.78;;;6.50;92.20;;;;;;5133017;27;20057;-32
2023/11/26 09:27:05;;;;;;;8.10;2.70;;;6.50;92.20;;;;;;5133585;27;20023;-32
2023/11/26 09:29:30;;;;;;;6.97;2.95;;;6.60;92.20;;;;;;5134742;27;20107;-32
2023/11/26 09:31:56;;;;;;;9.77;3.53;;;6.60;92.20;;;;;;5134679;27;20134;-32
2023/11/26 09:34:22;;;;;;;5.90;2.85;;;6.70;92.20;;;;;;5134847;27;20080;-32
2023/11/26 09:36:47;;;;;;;8.27;3.10;;;6.70;92.10;;;;;;5134787;27;20401;-32
2023/11/26 09:39:15;;;;;;;8.30;2.90;;;6.70;92.20;;;;;;5134597;27;20012;-31
2023/11/26 09:41:41;;;;;;;6.50;2.70;;;6.80;92.20;;;;;;5134853;27;20383;-31
2023/11/26 09:44:07;;;;;;;6.00;2.55;;;6.80;92.20;;;;;;5134609;27;20020;-31
2023/11/26 09:46:34;;;;;;;7.93;2.50;;;6.80;92.20;;;;;;5134759;27;20015;-31
2023/11/26 09:49:02;;;;;;;5.95;2.97;;;6.80;92.20;;;;;;5134791;27;20110;-29
2023/11/26 09:51:30;;;;;;;6.47;2.72;;;6.90;92.20;;;;;;5134687;27;20020;-32
2023/11/26 09:53:55;;;;;;;5.22;2.67;;;6.90;92.20;;;;;;5134481;27;20045;-33
2023/11/26 09:56:21;;;;;;;5.82;2.63;;;7.00;92.50;;;;;;5134182;27;20020;-33
2023/11/26 09:58:47;;;;;;;5.82;2.58;;;7.00;92.20;;;;;;5134485;27;20066;-32
2023/11/26 10:01:12;;;;;;;6.38;2.40;;;7.00;92.20;;;;;;5134076;27;20535;-33
2023/11/26 10:04:04;;;;;;;4.68;2.30;;;7.10;92.20;;;;;;5132955;27;20459;-32
2023/11/26 10:06:30;;;;;;;7.93;2.60;;;7.10;92.20;;;;;;5128938;27;20042;-33
2023/11/26 10:08:58;;;;;;;5.53;2.40;;;7.20;92.20;;;;;;5134227;27;20475;-32
2023/11/26 10:11:26;;;;;;;6.18;2.30;;;7.20;92.10;;;;;;5133845;27;20424;-32
2023/11/26 10:13:53;;;;;;;7.35;2.38;;;7.20;92.10;;;;;;5134217;27;20023;-33
2023/11/26 10:16:29;;;;;;;7.30;2.60;;;7.30;92.10;;;;;;5133823;27;20467;-32
2023/11/26 10:18:54;;;;;;;9.30;2.55;;;7.30;92.10;;;;;;5133405;27;20572;-32
2023/11/26 10:21:20;;;;;;;6.47;3.13;;;7.30;92.20;;;;;;5133605;27;20032;-33
2023/11/26 10:23:46;;;;;;;5.93;2.90;;;7.40;92.10;;;;;;5134180;27;20050;-33
2023/11/26 10:26:27;;;;;;;8.05;3.08;;;7.40;92.10;;;;;;5133396;27;20023;-33
2023/11/26 10:29:03;;;;;;;4.68;2.55;;;7.50;92.10;;;;;;5133957;27;20019;-32
2023/11/26 10:31:29;;;;;;;5.85;3.30;;;7.50;92.10;;;;;;5133332;27;20130;-32
2023/11/26 10:34:21;;;;;;;4.90;2.83;;;7.60;92.10;;;;;;5134146;27;20633;-32
2023/11/26 10:36:47;;;;;;;10.45;3.10;;;7.60;92.00;;;;;;5130546;27;20038;-32
2023/11/26 10:39:14;;;;;;;5.10;2.70;;;7.70;92.00;;;;;;5133629;27;20379;-32
2023/11/26 10:41:40;;;;;;;7.95;3.08;;;7.70;92.10;;;;;;5133801;27;20486;-32
2023/11/26 10:44:07;;;;;;;6.03;3.00;;;7.70;92.00;;;;;;5133512;27;20084;-33
2023/11/26 10:46:35;;;;;;;6.32;2.75;;;7.70;92.00;;;;;;5133244;27;20459;-31
2023/11/26 10:49:22;;;;;;;4.55;2.72;;;7.70;92.00;;;;;;5133146;27;20031;-32
2023/11/26 10:52:12;;;;;;;7.57;3.00;;;7.70;92.00;;;;;;5133160;27;20024;-31
2023/11/26 10:55:00;;;;;;;6.78;2.88;;;7.70;92.00;;;;;;5132924;27;20019;-31
2023/11/26 10:57:43;;;;;;;6.60;2.75;;;7.70;92.00;;;;;;5127150;27;20061;-32
2023/11/26 11:00:19;;;;;;;7.50;2.95;;;7.70;92.00;;;;;;5132791;27;20022;-31
2023/11/26 11:02:47;;;;;;;9.00;3.00;;;7.70;92.00;;;;;;5132800;27;20019;-32
2023/11/26 11:05:13;;;;;;;6.72;2.85;;;7.70;92.10;;;;;;5132897;27;20514;-31
2023/11/26 11:07:40;;;;;;;5.85;2.60;;;7.70;92.10;;;;;;5132950;27;20120;-32
2023/11/26 11:10:41;;;;;;;6.55;2.80;;;7.70;92.10;;;;;;5132635;27;20310;-32
2023/11/26 11:13:13;;;;;;;6.88;2.45;;;7.70;92.10;;;;;;5114862;27;20133;-31
2023/11/26 11:15:40;;;;;;;4.28;2.80;;;7.70;92.00;;;;;;5132824;27;20019;-33
2023/11/26 11:18:27;;;;;;;6.90;2.83;;;7.80;92.10;;;;;;5132864;27;20483;-32
2023/11/26 11:21:05;;;;;;;7.13;3.20;;;7.80;92.10;;;;;;5133013;27;20023;-32
2023/11/26 11:23:42;;;;;;;9.35;3.08;;;7.80;92.10;;;;;;5133165;27;20102;-33
2023/11/26 11:26:09;;;;;;;6.05;3.08;;;7.90;92.10;;;;;;5132517;27;20015;-33
2023/11/26 11:28:47;;;;;;;6.15;2.67;;;7.90;92.00;;;;;;5132791;27;20064;-33
2023/11/26 11:31:19;;;;;;;9.43;3.20;;;7.90;92.00;;;;;;5131421;27;20100;-32
2023/11/26 11:34:16;;;;;;;6.95;3.00;;;7.90;92.00;;;;;;5132546;27;20023;-31
2023/11/26 11:36:44;;;;;;;5.78;2.75;;;7.90;92.00;;;;;;5128087;27;20513;-32
2023/11/26 11:39:13;;;;;;;7.80;3.00;;;8.00;92.00;;;;;;5132425;27;20019;-32
2023/11/26 11:41:57;;;;;;;7.95;2.90;;;8.00;92.00;;;;;;5131929;27;20015;-32
2023/11/26 11:44:31;;;;;;;6.13;2.90;;;8.10;92.00;;;;;;5132280;27;20034;-34
2023/11/26 11:46:58;;;;;;;10.18;2.90;;;8.20;92.00;;;;;;5131927;27;20423;-33
2023/11/26 11:49:28;;;;;;;7.70;3.20;;;8.20;91.90;;;;;;5132222;27;20102;-34
2023/11/26 11:51:54;;;;;;;6.07;2.80;;;8.20;91.90;;;;;;5132304;27;20475;-32
2023/11/26 11:54:54;;;;;;;4.90;2.80;;;8.40;92.00;;;;;;5132216;27;20019;-34
2023/11/26 11:57:24;;;;;;;6.30;2.90;;;8.40;91.90;;;;;;5124820;27;20031;-34
2023/11/26 11:59:51;;;;;;;8.27;3.30;;;8.50;91.90;;;;;;5131889;27;20022;-34
2023/11/26 12:02:16;;;;;;;4.95;2.80;;;8.50;91.90;;;;;;5132243;27;20023;-32
2023/11/26 12:04:50;;;;;;;8.55;3.03;;;8.50;91.80;;;;;;5131945;27;20121;-34
2023/11/26 12:07:17;;;;;;;8.27;2.60;;;8.60;91.80;;;;;;5132179;27;20023;-34
2023/11/26 12:09:44;;;;;;;7.47;2.85;;;8.60;91.80;;;;;;5132126;28;20023;-33
2023/11/26 12:12:10;;;;;;;5.50;2.53;;;8.60;92.00;;;;;;5132048;27;20066;-33
2023/11/26 12:14:36;;;;;;;6.78;2.42;;;8.60;91.70;;;;;;5132144;27;20047;-31
2023/11/26 12:17:07;;;;;;;8.98;2.35;;;8.70;91.80;;;;;;5131967;27;20019;-33
2023/11/26 12:19:37;;;;;;;5.03;2.60;;;8.70;91.70;;;;;;5132396;27;20462;-33
2023/11/26 12:22:06;;;;;;;8.00;2.35;;;8.70;91.70;;;;;;5132096;27;20058;-33
2023/11/26 12:24:32;;;;;;;9.13;2.28;;;8.70;91.70;;;;;;5132125;27;20083;-34
2023/11/26 12:26:58;;;;;;;5.63;2.45;;;8.70;91.70;;;;;;5131609;27;20035;-32
2023/11/26 12:29:29;;;;;;;5.05;2.55;;;8.70;91.70;;;;;;5132170;27;20422;-31
2023/11/26 12:31:56;;;;;;;5.05;2.40;;;8.70;91.60;;;;;;5131728;27;20414;-33
2023/11/26 12:34:25;;;;;;;6.82;2.58;;;8.70;91.60;;;;;;5131705;27;20079;-32
2023/11/26 12:36:51;;;;;;;5.75;2.50;;;8.60;91.50;;;;;;5131962;27;20094;-32
2023/11/26 12:39:18;;;;;;;5.80;2.40;;;8.60;91.60;;;;;;5132039;27;20046;-32
2023/11/26 12:41:45;;;;;;;4.65;2.05;;;8.60;91.60;;;;;;5132043;27;20382;-31
2023/11/26 12:44:12;;;;;;;4.78;1.98;;;8.60;91.60;;;;;;5136282;27;20431;-33
2023/11/26 12:46:39;;;;;;;4.63;2.15;;;8.50;91.60;;;;;;5135915;27;20015;-34
2023/11/26 12:49:14;;;;;;;7.40;2.00;;;8.50;91.60;;;;;;5135766;27;20023;-34
2023/11/26 12:51:39;;;;;;;4.47;2.20;;;8.50;91.60;;;;;;5135625;27;20019;-33
2023/11/26 12:54:05;;;;;;;3.67;1.70;;;8.40;91.60;;;;;;5134449;27;20031;-33
2023/11/26 12:56:31;;;;;;;3.13;1.98;;;8.40;91.60;;;;;;5135293;27;20043;-33
2023/11/26 12:58:59;;;;;;;5.00;2.22;;;8.40;91.60;;;;;;5135574;27;20363;-32